Terminal Aerodrome Forecast
Issued by NWS

Home | Current Version | Previous Version | Text Only | Print | Product List | Glossary Off
Versions: 1 2 3 4 5 6 7 8 9 10 11 12 13 14 15 16 17

581
FTUS43 KMPX 100956 AAA
TAFRWF
TAF AMD
KRWF 100956Z 1010/1106 02004KT P6SM BKN050 OVC100
     FM101400 04004KT P6SM BKN040 OVC090
      TEMPO 1014/1018 6SM -SN OVC035
     FM101800 12005KT P6SM OVC035
     FM102300 07004KT P6SM OVC040
     FM110000 VRB02KT P6SM BKN050 OVC120=

USA.gov is the U.S. government's official web portal to all federal, state and local government web resources and services.